createdAt,value
2018-09-22T00:03:36.573Z,32.09
2018-09-22T00:09:31.606Z,34.9
2018-09-22T00:15:26.564Z,30.39
2018-09-22T00:21:21.580Z,28.66
2018-09-22T00:27:16.717Z,29.13
2018-09-22T00:33:11.580Z,26.63
2018-09-22T00:39:06.583Z,31.22
2018-09-22T00:45:01.611Z,28.6
2018-09-22T00:50:56.606Z,29.05
2018-09-22T00:56:51.611Z,26.57
2018-09-22T01:02:46.639Z,26.82
2018-09-22T01:08:41.629Z,26.97
2018-09-22T01:14:36.672Z,27.56
2018-09-22T01:20:31.715Z,28.53
2018-09-22T01:26:26.626Z,31.31
2018-09-22T01:32:21.612Z,23.97
2018-09-22T01:38:16.675Z,28.62
2018-09-22T01:44:11.634Z,27.96
2018-09-22T01:50:10.717Z,30.53
2018-09-22T01:56:01.646Z,31.24
2018-09-22T02:01:56.633Z,24.19
2018-09-22T02:07:51.705Z,28.92
2018-09-22T02:13:46.653Z,24.45
2018-09-22T02:19:41.671Z,23.05
2018-09-22T02:25:36.645Z,28.43
2018-09-22T02:31:31.674Z,28.02
2018-09-22T02:37:26.654Z,25.98
2018-09-22T02:43:21.664Z,28.56
2018-09-22T02:49:16.707Z,25.66
2018-09-22T02:55:11.704Z,22.45
2018-09-22T03:01:06.746Z,24.27
2018-09-22T03:07:01.707Z,25.65
2018-09-22T03:12:56.683Z,29.99
2018-09-22T03:18:51.673Z,30.61
2018-09-22T03:24:46.718Z,24.45
2018-09-22T03:30:41.693Z,21.73
2018-09-22T03:36:36.700Z,26.08
2018-09-22T03:42:31.729Z,28.08
2018-09-22T03:48:26.715Z,28.46
2018-09-22T03:54:21.711Z,23.53
2018-09-22T04:00:16.719Z,27.53
2018-09-22T04:06:11.722Z,32.07
2018-09-22T04:12:06.751Z,31.7
2018-09-22T04:18:01.754Z,31.27
2018-09-22T04:23:56.746Z,28.4
2018-09-22T04:29:51.723Z,31.1
2018-09-22T04:35:46.756Z,27.9
2018-09-22T04:41:41.738Z,34.05
2018-09-22T04:47:36.757Z,36.98
2018-09-22T04:53:35.844Z,38.16
2018-09-22T04:59:26.781Z,40.94
2018-09-22T05:05:21.757Z,33.5
2018-09-22T05:11:17.962Z,32
2018-09-22T05:17:11.951Z,35.43
2018-09-22T05:23:06.768Z,39.77
2018-09-22T05:29:01.769Z,34.28
2018-09-22T05:34:56.781Z,35.11
2018-09-22T05:40:51.807Z,111.2
2018-09-22T05:46:46.773Z,52.54
2018-09-22T05:52:41.811Z,46.94
2018-09-22T05:58:36.788Z,37.79
2018-09-22T06:04:31.805Z,36.73
2018-09-22T06:10:26.873Z,31.93
2018-09-22T06:16:21.803Z,42.51
2018-09-22T06:22:16.830Z,35.15
2018-09-22T06:28:11.819Z,34.58
2018-09-22T06:34:06.869Z,30.79
2018-09-22T06:40:01.841Z,33.26
2018-09-22T06:45:56.831Z,37.62
2018-09-22T06:51:51.826Z,31.6
2018-09-22T06:57:46.827Z,35.4
2018-09-22T07:03:41.844Z,31.58
2018-09-22T07:09:37.133Z,34.78
2018-09-22T07:15:31.886Z,36.91
2018-09-22T07:21:26.854Z,25.1
2018-09-22T07:27:21.847Z,24.77
2018-09-22T07:33:16.868Z,22.88
2018-09-22T07:39:11.854Z,26.3
2018-09-22T07:45:06.888Z,25.01
2018-09-22T07:51:01.860Z,24.13
2018-09-22T07:56:56.869Z,22.45
2018-09-22T08:02:51.908Z,33.49
2018-09-22T08:08:46.885Z,32.88
2018-09-22T08:14:41.963Z,26.91
2018-09-22T08:20:36.888Z,25.12
2018-09-22T08:26:31.867Z,25.18
2018-09-22T08:32:26.915Z,20.36
2018-09-22T08:38:21.885Z,19.67
2018-09-22T08:44:16.883Z,20.05
2018-09-22T08:50:11.892Z,17.06
2018-09-22T08:56:06.955Z,20.29
2018-09-22T09:02:01.908Z,20.8
2018-09-22T09:07:56.907Z,18.6
2018-09-22T09:13:51.933Z,18.8
2018-09-22T09:19:46.939Z,19.44
2018-09-22T09:25:41.918Z,15.15
2018-09-22T09:31:36.940Z,19.87
2018-09-22T09:37:31.921Z,17.28
2018-09-22T09:43:26.996Z,16.82
2018-09-22T09:49:22.001Z,17.74
2018-09-22T09:55:16.971Z,14.5
2018-09-22T10:01:11.993Z,10.93
2018-09-22T10:07:06.945Z,13.28
2018-09-22T10:13:01.942Z,12.1
2018-09-22T10:18:56.973Z,16.55
2018-09-22T10:24:51.983Z,14.58
2018-09-22T10:30:49.125Z,14.35
2018-09-22T10:36:41.960Z,9.61
2018-09-22T10:42:36.974Z,8.99
2018-09-22T10:48:31.967Z,7.4
2018-09-22T10:54:27.024Z,9.18
2018-09-22T11:00:21.987Z,9.53
2018-09-22T11:06:17.012Z,7.48
2018-09-22T11:12:12.039Z,10.84
2018-09-22T11:18:07.013Z,8.9
2018-09-22T11:24:02.000Z,8.12
2018-09-22T11:29:56.993Z,7.72
2018-09-22T11:35:52.048Z,12.3
2018-09-22T11:41:47.035Z,6.53
2018-09-22T11:47:42.037Z,9.03
2018-09-22T11:53:37.018Z,7.66
2018-09-22T11:59:32.020Z,8.77
2018-09-22T12:05:27.119Z,9.59
2018-09-22T12:11:22.043Z,9.24
2018-09-22T12:17:17.083Z,12.97
2018-09-22T12:23:12.023Z,9.23
2018-09-22T12:29:07.036Z,7.65
2018-09-22T12:35:02.031Z,10.08
2018-09-22T12:40:57.095Z,6.53
2018-09-22T12:46:52.045Z,9.61
2018-09-22T12:52:47.072Z,8.99
2018-09-22T12:58:42.056Z,8.28
2018-09-22T13:04:37.055Z,8.7
2018-09-22T13:10:32.071Z,6.25
2018-09-22T13:16:27.070Z,6.75
2018-09-22T13:22:22.069Z,7.68
2018-09-22T13:28:17.074Z,7.89
2018-09-22T13:34:12.083Z,8.69
2018-09-22T13:40:07.079Z,11.31
2018-09-22T13:46:02.101Z,8.64
2018-09-22T13:51:57.115Z,7.17
2018-09-22T13:57:52.072Z,11.96
2018-09-22T14:03:47.169Z,12.74
2018-09-22T14:09:42.105Z,12.27
2018-09-22T14:15:37.092Z,13.83
2018-09-22T14:21:32.148Z,10.24
2018-09-22T14:27:27.114Z,8.65
2018-09-22T14:33:22.121Z,7.81
2018-09-22T14:39:17.125Z,8.37
2018-09-22T14:45:12.148Z,13.14
2018-09-22T14:51:07.150Z,10.37
2018-09-22T14:57:02.153Z,7.32
2018-09-22T15:02:57.146Z,8.85
2018-09-22T15:08:52.186Z,10.21
2018-09-22T15:14:47.148Z,9.42
2018-09-22T15:20:42.203Z,10.1
2018-09-22T15:26:37.137Z,9.64
2018-09-22T15:32:32.170Z,12.39
2018-09-22T15:38:27.271Z,14.59
2018-09-22T15:44:22.171Z,10.48
2018-09-22T15:50:17.178Z,9.68
2018-09-22T15:56:12.257Z,8.44
2018-09-22T16:02:07.189Z,7.31
2018-09-22T16:08:02.226Z,11.22
2018-09-22T16:13:57.205Z,9.73
2018-09-22T16:19:52.235Z,11.37
2018-09-22T16:25:47.207Z,7.67
2018-09-22T16:31:42.197Z,8.74
2018-09-22T16:37:37.200Z,10.31
2018-09-22T16:43:34.160Z,10.1
2018-09-22T16:49:27.230Z,11.45
2018-09-22T16:55:22.232Z,9.72
2018-09-22T17:01:17.290Z,10.49
2018-09-22T17:07:12.252Z,7.97
2018-09-22T17:13:07.230Z,11.22
2018-09-22T17:19:02.216Z,11.64
2018-09-22T17:24:57.236Z,10.65
2018-09-22T17:30:52.220Z,11.48
2018-09-22T17:36:47.286Z,9.87
2018-09-22T17:42:42.233Z,15.84
2018-09-22T17:48:37.330Z,12.84
2018-09-22T17:54:32.244Z,24.71
2018-09-22T18:00:27.300Z,20.49
2018-09-22T18:06:22.248Z,24.72
2018-09-22T18:12:17.270Z,17.83
2018-09-22T18:18:12.258Z,17.96
2018-09-22T18:24:07.288Z,15.34
2018-09-22T18:30:02.267Z,13.64
2018-09-22T18:35:57.284Z,17.06
2018-09-22T18:41:52.340Z,17.23
2018-09-22T18:47:47.284Z,21.42
2018-09-22T18:53:42.347Z,18.97
2018-09-22T18:59:37.296Z,17.64
2018-09-22T19:05:32.305Z,15.91
2018-09-22T19:11:27.322Z,22.23
2018-09-22T19:17:22.308Z,18.17
2018-09-22T19:23:17.377Z,17.75
2018-09-22T19:29:12.316Z,17.37
2018-09-22T19:35:07.383Z,16.24
2018-09-22T19:41:02.327Z,25.09
2018-09-22T19:46:57.317Z,21.53
2018-09-22T19:52:52.387Z,24.82
2018-09-22T19:58:47.357Z,23.16
2018-09-22T20:04:42.346Z,24.59
2018-09-22T20:10:37.343Z,23.23
2018-09-22T20:16:32.408Z,24.14
2018-09-22T20:22:27.358Z,30.13
2018-09-22T20:28:22.345Z,30.02
2018-09-22T20:34:17.385Z,20.95
2018-09-22T20:40:12.357Z,25.91
2018-09-22T20:46:07.342Z,31.61
2018-09-22T20:52:02.362Z,33.54
2018-09-22T20:57:57.369Z,35
2018-09-22T21:03:52.389Z,34.68
2018-09-22T21:09:47.401Z,29.83
2018-09-22T21:15:42.385Z,33.79
2018-09-22T21:21:37.374Z,50.21
2018-09-22T21:27:32.401Z,30.57
2018-09-22T21:33:29.910Z,33.82
2018-09-22T21:39:22.416Z,30.48
2018-09-22T21:45:17.390Z,40.2
2018-09-22T21:51:12.411Z,29.21
2018-09-22T21:57:07.405Z,31.15
2018-09-22T22:03:02.401Z,34.43
2018-09-22T22:08:57.421Z,31.35
2018-09-22T22:14:52.425Z,30.22
2018-09-22T22:20:47.442Z,38.55
2018-09-22T22:26:42.429Z,42.51
2018-09-22T22:32:37.428Z,43.18
2018-09-22T22:38:32.432Z,36.72
2018-09-22T22:44:27.508Z,37.47
2018-09-22T22:50:22.427Z,32.16
2018-09-22T22:56:17.476Z,35.82
2018-09-22T23:02:12.455Z,41.74
2018-09-22T23:08:07.466Z,35.84
2018-09-22T23:14:02.446Z,33.94
2018-09-22T23:19:57.472Z,29.81
2018-09-22T23:25:52.538Z,35.29
2018-09-22T23:31:47.470Z,38.92
2018-09-22T23:37:42.457Z,32.85
2018-09-22T23:43:37.489Z,33.01
2018-09-22T23:49:32.461Z,29.73
2018-09-22T23:55:27.507Z,37.53
